sensor_id;sensor_type;location;lat;lon;timestamp;pressure;altitude;pressure_sealevel;temperature;humidity
69842;BME280;57138;51.326;-0.068;2022-09-30T00:01:47;99060.06;;;7.07;78.63
69842;BME280;57138;51.326;-0.068;2022-09-30T00:04:18;99056.72;;;6.98;78.20
69842;BME280;57138;51.326;-0.068;2022-09-30T00:06:44;99065.09;;;6.95;78.81
69842;BME280;57138;51.326;-0.068;2022-09-30T00:09:11;99020.88;;;6.59;78.22
69842;BME280;57138;51.326;-0.068;2022-09-30T00:11:41;99064.44;;;6.86;78.42
69842;BME280;57138;51.326;-0.068;2022-09-30T00:14:18;99094.97;;;6.97;78.53
69842;BME280;57138;51.326;-0.068;2022-09-30T00:16:45;99079.34;;;6.87;78.60
69842;BME280;57138;51.326;-0.068;2022-09-30T00:19:11;99084.84;;;6.86;79.11
69842;BME280;57138;51.326;-0.068;2022-09-30T00:21:40;99100.66;;;6.94;79.01
69842;BME280;57138;51.326;-0.068;2022-09-30T00:24:06;99112.50;;;6.91;78.65
69842;BME280;57138;51.326;-0.068;2022-09-30T00:26:33;99094.19;;;6.75;78.82
69842;BME280;57138;51.326;-0.068;2022-09-30T00:29:00;99114.06;;;6.86;79.06
69842;BME280;57138;51.326;-0.068;2022-09-30T00:31:28;99092.34;;;6.75;78.47
69842;BME280;57138;51.326;-0.068;2022-09-30T00:33:55;99035.22;;;6.36;78.77
69842;BME280;57138;51.326;-0.068;2022-09-30T00:36:55;99122.56;;;6.74;78.83
69842;BME280;57138;51.326;-0.068;2022-09-30T00:39:23;99104.53;;;6.70;79.34
69842;BME280;57138;51.326;-0.068;2022-09-30T00:42:01;99113.06;;;6.65;78.75
69842;BME280;57138;51.326;-0.068;2022-09-30T00:47:49;99120.44;;;6.63;79.27
69842;BME280;57138;51.326;-0.068;2022-09-30T00:50:22;99129.41;;;6.62;79.42
69842;BME280;57138;51.326;-0.068;2022-09-30T00:53:25;99121.50;;;6.47;79.17
69842;BME280;57138;51.326;-0.068;2022-09-30T00:55:56;99123.97;;;6.48;79.53
69842;BME280;57138;51.326;-0.068;2022-09-30T01:01:09;99117.38;;;6.44;79.20
69842;BME280;57138;51.326;-0.068;2022-09-30T01:03:59;99115.72;;;6.43;79.62
69842;BME280;57138;51.326;-0.068;2022-09-30T01:06:22;99141.16;;;6.53;79.20
69842;BME280;57138;51.326;-0.068;2022-09-30T01:08:48;99091.38;;;6.18;79.52
69842;BME280;57138;51.326;-0.068;2022-09-30T01:11:14;99150.16;;;6.52;79.35
69842;BME280;57138;51.326;-0.068;2022-09-30T01:13:41;99142.75;;;6.47;79.49
69842;BME280;57138;51.326;-0.068;2022-09-30T01:24:46;99154.31;;;6.61;80.78
69842;BME280;57138;51.326;-0.068;2022-09-30T01:27:38;99153.94;;;6.64;80.17
69842;BME280;57138;51.326;-0.068;2022-09-30T01:30:20;99153.56;;;6.67;80.84
69842;BME280;57138;51.326;-0.068;2022-09-30T01:38:27;99141.69;;;6.63;81.04
69842;BME280;57138;51.326;-0.068;2022-09-30T01:41:10;99163.94;;;6.83;80.77
69842;BME280;57138;51.326;-0.068;2022-09-30T01:43:49;99134.03;;;6.75;81.11
69842;BME280;57138;51.326;-0.068;2022-09-30T01:57:42;99153.72;;;7.09;81.32
69842;BME280;57138;51.326;-0.068;2022-09-30T02:00:10;99134.19;;;6.95;81.53
69842;BME280;57138;51.326;-0.068;2022-09-30T02:02:50;99157.84;;;7.11;80.96
69842;BME280;57138;51.326;-0.068;2022-09-30T02:07:56;99169.09;;;7.13;81.67
69842;BME280;57138;51.326;-0.068;2022-09-30T02:10:37;99160.13;;;7.14;81.78
69842;BME280;57138;51.326;-0.068;2022-09-30T02:13:13;99147.81;;;7.13;80.98
69842;BME280;57138;51.326;-0.068;2022-09-30T02:15:43;99152.13;;;7.14;81.45
69842;BME280;57138;51.326;-0.068;2022-09-30T02:18:16;99124.44;;;7.02;81.37
69842;BME280;57138;51.326;-0.068;2022-09-30T02:20:46;99152.75;;;7.16;81.50
69842;BME280;57138;51.326;-0.068;2022-09-30T02:23:18;99140.03;;;7.12;81.35
69842;BME280;57138;51.326;-0.068;2022-09-30T02:25:48;99110.03;;;6.90;81.66
69842;BME280;57138;51.326;-0.068;2022-09-30T02:28:22;99140.63;;;7.07;81.37
69842;BME280;57138;51.326;-0.068;2022-09-30T02:30:55;99142.03;;;7.03;81.18
69842;BME280;57138;51.326;-0.068;2022-09-30T02:33:38;99129.91;;;6.94;81.51
69842;BME280;57138;51.326;-0.068;2022-09-30T02:36:10;99128.06;;;6.94;81.77
69842;BME280;57138;51.326;-0.068;2022-09-30T02:38:42;99153.91;;;7.07;81.36
69842;BME280;57138;51.326;-0.068;2022-09-30T02:41:13;99166.19;;;7.08;81.27
69842;BME280;57138;51.326;-0.068;2022-09-30T02:43:39;99134.56;;;6.92;81.31
69842;BME280;57138;51.326;-0.068;2022-09-30T02:49:07;99153.09;;;7.07;82.04
69842;BME280;57138;51.326;-0.068;2022-09-30T02:52:01;99121.41;;;6.83;81.80
69842;BME280;57138;51.326;-0.068;2022-09-30T02:55:25;99133.75;;;6.91;81.85
69842;BME280;57138;51.326;-0.068;2022-09-30T03:00:17;99160.69;;;7.10;82.13
69842;BME280;57138;51.326;-0.068;2022-09-30T03:02:43;99147.34;;;7.03;81.55
69842;BME280;57138;51.326;-0.068;2022-09-30T03:05:09;99153.16;;;7.13;81.83
69842;BME280;57138;51.326;-0.068;2022-09-30T03:07:36;99146.81;;;7.14;82.38
69842;BME280;57138;51.326;-0.068;2022-09-30T03:10:11;99131.03;;;7.06;82.09
69842;BME280;57138;51.326;-0.068;2022-09-30T03:13:02;99127.13;;;7.09;82.57
69842;BME280;57138;51.326;-0.068;2022-09-30T03:16:10;99148.31;;;7.24;82.85
69842;BME280;57138;51.326;-0.068;2022-09-30T03:18:54;99147.94;;;7.27;83.06
69842;BME280;57138;51.326;-0.068;2022-09-30T03:24:29;99148.19;;;7.32;83.53
69842;BME280;57138;51.326;-0.068;2022-09-30T03:30:14;99149.84;;;7.33;82.80
69842;BME280;57138;51.326;-0.068;2022-09-30T03:35:44;99157.25;;;7.44;82.92
69842;BME280;57138;51.326;-0.068;2022-09-30T03:38:48;99159.16;;;7.50;83.04
69842;BME280;57138;51.326;-0.068;2022-09-30T03:44:23;99167.81;;;7.59;83.08
69842;BME280;57138;51.326;-0.068;2022-09-30T03:46:55;99149.50;;;7.49;83.49
69842;BME280;57138;51.326;-0.068;2022-09-30T03:49:24;99149.78;;;7.54;82.98
69842;BME280;57138;51.326;-0.068;2022-09-30T03:51:51;99143.41;;;7.55;83.34
69842;BME280;57138;51.326;-0.068;2022-09-30T03:54:17;99132.34;;;7.52;83.15
69842;BME280;57138;51.326;-0.068;2022-09-30T03:56:42;99168.31;;;7.76;83.80
69842;BME280;57138;51.326;-0.068;2022-09-30T03:59:16;99152.09;;;7.71;83.71
69842;BME280;57138;51.326;-0.068;2022-09-30T04:01:43;99147.44;;;7.73;83.62
69842;BME280;57138;51.326;-0.068;2022-09-30T04:04:09;99157.50;;;7.84;84.01
69842;BME280;57138;51.326;-0.068;2022-09-30T04:06:34;99139.19;;;7.68;84.59
69842;BME280;57138;51.326;-0.068;2022-09-30T04:09:00;99169.22;;;7.90;84.55
69842;BME280;57138;51.326;-0.068;2022-09-30T04:11:25;99157.94;;;7.88;84.50
69842;BME280;57138;51.326;-0.068;2022-09-30T04:13:51;99158.78;;;7.88;84.05
69842;BME280;57138;51.326;-0.068;2022-09-30T04:16:16;99167.19;;;7.99;84.68
69842;BME280;57138;51.326;-0.068;2022-09-30T04:18:42;99136.41;;;7.83;85.23
69842;BME280;57138;51.326;-0.068;2022-09-30T04:21:09;99169.88;;;8.05;84.48
69842;BME280;57138;51.326;-0.068;2022-09-30T04:23:37;99138.09;;;7.90;84.89
69842;BME280;57138;51.326;-0.068;2022-09-30T04:26:06;99169.94;;;8.12;84.81
69842;BME280;57138;51.326;-0.068;2022-09-30T04:28:33;99169.53;;;8.15;85.63
69842;BME280;57138;51.326;-0.068;2022-09-30T04:30:59;99175.09;;;8.20;85.10
69842;BME280;57138;51.326;-0.068;2022-09-30T04:33:25;99149.03;;;8.09;86.02
69842;BME280;57138;51.326;-0.068;2022-09-30T04:35:55;99146.38;;;8.09;86.24
69842;BME280;57138;51.326;-0.068;2022-09-30T04:38:22;99140.66;;;8.12;85.95
69842;BME280;57138;51.326;-0.068;2022-09-30T04:40:49;99128.97;;;8.13;86.12
69842;BME280;57138;51.326;-0.068;2022-09-30T04:43:16;99143.34;;;8.25;85.84
69842;BME280;57138;51.326;-0.068;2022-09-30T04:45:44;99157.13;;;8.36;86.17
69842;BME280;57138;51.326;-0.068;2022-09-30T04:48:10;99137.81;;;8.27;86.37
69842;BME280;57138;51.326;-0.068;2022-09-30T04:50:35;99143.59;;;8.31;86.19
69842;BME280;57138;51.326;-0.068;2022-09-30T04:53:01;99158.38;;;8.40;86.72
69842;BME280;57138;51.326;-0.068;2022-09-30T04:55:28;99139.47;;;8.35;86.72
69842;BME280;57138;51.326;-0.068;2022-09-30T04:57:54;99103.78;;;8.09;86.43
69842;BME280;57138;51.326;-0.068;2022-09-30T05:00:19;99173.19;;;8.56;86.99
69842;BME280;57138;51.326;-0.068;2022-09-30T05:02:45;99134.94;;;8.28;87.25
69842;BME280;57138;51.326;-0.068;2022-09-30T05:05:11;99146.88;;;8.39;87.25
69842;BME280;57138;51.326;-0.068;2022-09-30T05:07:37;99157.16;;;8.49;87.35
69842;BME280;57138;51.326;-0.068;2022-09-30T05:10:02;99162.31;;;8.57;87.33
69842;BME280;57138;51.326;-0.068;2022-09-30T05:12:28;99181.59;;;8.66;87.30
69842;BME280;57138;51.326;-0.068;2022-09-30T05:14:53;99170.94;;;8.59;87.69
69842;BME280;57138;51.326;-0.068;2022-09-30T05:17:19;99172.59;;;8.60;87.07
69842;BME280;57138;51.326;-0.068;2022-09-30T05:19:44;99158.41;;;8.60;87.02
69842;BME280;57138;51.326;-0.068;2022-09-30T05:22:10;99158.63;;;8.58;87.71
69842;BME280;57138;51.326;-0.068;2022-09-30T05:24:35;99172.78;;;8.66;87.63
69842;BME280;57138;51.326;-0.068;2022-09-30T05:27:01;99179.78;;;8.67;87.30
69842;BME280;57138;51.326;-0.068;2022-09-30T05:29:27;99150.22;;;8.55;87.55
69842;BME280;57138;51.326;-0.068;2022-09-30T05:31:52;99175.06;;;8.69;87.35
69842;BME280;57138;51.326;-0.068;2022-09-30T05:34:18;99135.25;;;8.47;87.66
69842;BME280;57138;51.326;-0.068;2022-09-30T05:36:43;99165.81;;;8.64;87.95
69842;BME280;57138;51.326;-0.068;2022-09-30T05:39:10;99128.03;;;8.41;87.36
69842;BME280;57138;51.326;-0.068;2022-09-30T05:41:35;99176.91;;;8.68;87.47
69842;BME280;57138;51.326;-0.068;2022-09-30T05:44:01;99161.72;;;8.62;87.22
69842;BME280;57138;51.326;-0.068;2022-09-30T05:46:27;99163.13;;;8.58;88.06
69842;BME280;57138;51.326;-0.068;2022-09-30T05:48:53;99171.94;;;8.58;88.04
69842;BME280;57138;51.326;-0.068;2022-09-30T05:51:19;99158.00;;;8.50;87.98
69842;BME280;57138;51.326;-0.068;2022-09-30T05:53:44;99125.34;;;8.34;87.75
69842;BME280;57138;51.326;-0.068;2022-09-30T05:56:10;99168.66;;;8.56;87.69
69842;BME280;57138;51.326;-0.068;2022-09-30T05:58:36;99168.66;;;8.50;88.14
69842;BME280;57138;51.326;-0.068;2022-09-30T06:01:12;99169.47;;;8.50;88.35
69842;BME280;57138;51.326;-0.068;2022-09-30T06:03:38;99170.28;;;8.51;87.89
69842;BME280;57138;51.326;-0.068;2022-09-30T06:06:05;99098.84;;;8.06;88.18
69842;BME280;57138;51.326;-0.068;2022-09-30T06:08:31;99131.69;;;8.33;88.76
69842;BME280;57138;51.326;-0.068;2022-09-30T06:10:56;99159.22;;;8.47;88.31
69842;BME280;57138;51.326;-0.068;2022-09-30T06:13:26;99124.50;;;8.20;88.57
69842;BME280;57138;51.326;-0.068;2022-09-30T06:15:59;99156.31;;;8.42;89.10
69842;BME280;57138;51.326;-0.068;2022-09-30T06:18:26;99144.41;;;8.38;89.29
69842;BME280;57138;51.326;-0.068;2022-09-30T06:20:55;99164.53;;;8.47;88.98
69842;BME280;57138;51.326;-0.068;2022-09-30T06:23:21;99161.22;;;8.38;89.08
69842;BME280;57138;51.326;-0.068;2022-09-30T06:25:51;99151.78;;;8.36;88.85
69842;BME280;57138;51.326;-0.068;2022-09-30T06:28:17;99141.31;;;8.27;88.33
69842;BME280;57138;51.326;-0.068;2022-09-30T06:30:43;99165.31;;;8.41;88.84
69842;BME280;57138;51.326;-0.068;2022-09-30T06:33:09;99161.22;;;8.38;88.89
69842;BME280;57138;51.326;-0.068;2022-09-30T06:35:34;99164.09;;;8.37;88.93
69842;BME280;57138;51.326;-0.068;2022-09-30T06:38:00;99159.97;;;8.34;88.89
69842;BME280;57138;51.326;-0.068;2022-09-30T06:40:26;99158.53;;;8.32;88.29
69842;BME280;57138;51.326;-0.068;2022-09-30T06:42:57;99164.50;;;8.34;88.45
69842;BME280;57138;51.326;-0.068;2022-09-30T06:45:23;99127.53;;;8.17;88.58
69842;BME280;57138;51.326;-0.068;2022-09-30T06:47:49;99130.00;;;8.19;89.25
69842;BME280;57138;51.326;-0.068;2022-09-30T06:50:16;99134.75;;;8.23;89.04
69842;BME280;57138;51.326;-0.068;2022-09-30T06:52:42;99131.69;;;8.26;89.15
69842;BME280;57138;51.326;-0.068;2022-09-30T06:55:08;99146.47;;;8.36;89.09
69842;BME280;57138;51.326;-0.068;2022-09-30T06:57:34;99113.84;;;8.20;88.98
69842;BME280;57138;51.326;-0.068;2022-09-30T07:00:00;99141.34;;;8.41;89.59
69842;BME280;57138;51.326;-0.068;2022-09-30T07:02:26;99114.47;;;8.29;89.02
69842;BME280;57138;51.326;-0.068;2022-09-30T07:04:53;99095.00;;;8.28;89.38
69842;BME280;57138;51.326;-0.068;2022-09-30T07:07:18;99060.78;;;8.12;89.25
69842;BME280;57138;51.326;-0.068;2022-09-30T07:09:46;99133.22;;;8.62;89.56
69842;BME280;57138;51.326;-0.068;2022-09-30T07:12:11;99136.31;;;8.73;89.85
69842;BME280;57138;51.326;-0.068;2022-09-30T07:14:36;99124.84;;;8.79;89.34
69842;BME280;57138;51.326;-0.068;2022-09-30T07:17:02;99108.03;;;8.78;89.68
69842;BME280;57138;51.326;-0.068;2022-09-30T07:19:29;99124.22;;;9.04;89.30
69842;BME280;57138;51.326;-0.068;2022-09-30T07:21:56;99125.66;;;9.13;89.51
69842;BME280;57138;51.326;-0.068;2022-09-30T07:24:42;99126.69;;;9.25;88.77
69842;BME280;57138;51.326;-0.068;2022-09-30T07:27:07;99126.47;;;9.33;88.91
69842;BME280;57138;51.326;-0.068;2022-09-30T07:29:33;99118.84;;;9.44;88.84
69842;BME280;57138;51.326;-0.068;2022-09-30T07:31:58;99103.28;;;9.47;89.08
69842;BME280;57138;51.326;-0.068;2022-09-30T07:34:24;99110.00;;;9.57;88.26
69842;BME280;57138;51.326;-0.068;2022-09-30T07:36:50;99102.22;;;9.62;88.23
69842;BME280;57138;51.326;-0.068;2022-09-30T07:39:16;99106.66;;;9.75;88.37
69842;BME280;57138;51.326;-0.068;2022-09-30T07:41:42;99085.75;;;9.71;87.86
69842;BME280;57138;51.326;-0.068;2022-09-30T07:44:11;99115.22;;;9.97;87.60
69842;BME280;57138;51.326;-0.068;2022-09-30T07:46:38;99100.03;;;9.97;87.91
69842;BME280;57138;51.326;-0.068;2022-09-30T07:49:04;99105.94;;;10.06;87.61
69842;BME280;57138;51.326;-0.068;2022-09-30T07:51:35;99118.81;;;10.22;86.88
69842;BME280;57138;51.326;-0.068;2022-09-30T07:54:05;99097.03;;;10.19;86.77
69842;BME280;57138;51.326;-0.068;2022-09-30T07:56:31;99114.25;;;10.36;86.33
69842;BME280;57138;51.326;-0.068;2022-09-30T07:59:00;99087.56;;;10.23;86.18
69842;BME280;57138;51.326;-0.068;2022-09-30T08:01:27;99114.16;;;10.50;86.19
69842;BME280;57138;51.326;-0.068;2022-09-30T08:03:57;99116.97;;;10.61;86.16
69842;BME280;57138;51.326;-0.068;2022-09-30T08:06:24;99119.75;;;10.73;85.99
69842;BME280;57138;51.326;-0.068;2022-09-30T08:08:52;99094.66;;;10.74;85.47
69842;BME280;57138;51.326;-0.068;2022-09-30T08:11:19;99083.09;;;10.81;85.19
69842;BME280;57138;51.326;-0.068;2022-09-30T08:13:49;99087.06;;;10.96;84.68
69842;BME280;57138;51.326;-0.068;2022-09-30T08:16:15;99089.03;;;11.08;84.22
69842;BME280;57138;51.326;-0.068;2022-09-30T08:18:40;99082.00;;;11.13;83.87
69842;BME280;57138;51.326;-0.068;2022-09-30T08:21:06;99045.72;;;10.99;83.73
69842;BME280;57138;51.326;-0.068;2022-09-30T08:23:32;99112.53;;;11.49;82.96
69842;BME280;57138;51.326;-0.068;2022-09-30T08:26:06;99058.97;;;11.31;82.88
69842;BME280;57138;51.326;-0.068;2022-09-30T08:28:33;99064.78;;;11.46;82.78
69842;BME280;57138;51.326;-0.068;2022-09-30T08:31:13;99116.84;;;11.87;82.47
69842;BME280;57138;51.326;-0.068;2022-09-30T08:33:39;99082.53;;;11.78;82.22
69842;BME280;57138;51.326;-0.068;2022-09-30T08:36:18;99113.88;;;12.14;81.13
69842;BME280;57138;51.326;-0.068;2022-09-30T08:38:46;99111.00;;;12.28;81.23
69842;BME280;57138;51.326;-0.068;2022-09-30T08:46:47;99103.13;;;12.75;79.22
69842;BME280;57138;51.326;-0.068;2022-09-30T08:52:21;99092.16;;;12.88;78.33
69842;BME280;57138;51.326;-0.068;2022-09-30T08:54:51;99077.81;;;12.71;78.16
69842;BME280;57138;51.326;-0.068;2022-09-30T08:57:19;99103.59;;;12.84;77.87
69842;BME280;57138;51.326;-0.068;2022-09-30T08:59:47;99110.38;;;12.86;77.43
69842;BME280;57138;51.326;-0.068;2022-09-30T09:04:42;99101.94;;;12.71;77.35
69842;BME280;57138;51.326;-0.068;2022-09-30T09:20:53;99085.25;;;12.57;75.99
69842;BME280;57138;51.326;-0.068;2022-09-30T09:23:19;99086.31;;;12.68;76.08
69842;BME280;57138;51.326;-0.068;2022-09-30T09:25:46;99079.31;;;12.67;75.83
69842;BME280;57138;51.326;-0.068;2022-09-30T09:28:24;99095.94;;;12.87;76.11
69842;BME280;57138;51.326;-0.068;2022-09-30T09:30:59;99086.34;;;12.91;75.83
69842;BME280;57138;51.326;-0.068;2022-09-30T09:33:30;99067.56;;;12.91;75.19
69842;BME280;57138;51.326;-0.068;2022-09-30T09:36:18;99092.22;;;13.12;74.48
69842;BME280;57138;51.326;-0.068;2022-09-30T09:41:48;99079.00;;;12.99;73.63
69842;BME280;57138;51.326;-0.068;2022-09-30T09:47:22;99079.38;;;12.90;73.91
69842;BME280;57138;51.326;-0.068;2022-09-30T09:49:59;99095.81;;;12.94;74.00
69842;BME280;57138;51.326;-0.068;2022-09-30T09:52:54;99092.91;;;12.95;73.90
69842;BME280;57138;51.326;-0.068;2022-09-30T09:55:22;99096.16;;;12.98;73.37
69842;BME280;57138;51.326;-0.068;2022-09-30T09:58:03;99084.28;;;12.93;73.25
69842;BME280;57138;51.326;-0.068;2022-09-30T10:00:39;99094.41;;;13.03;74.02
69842;BME280;57138;51.326;-0.068;2022-09-30T10:03:25;99063.38;;;12.95;73.46
69842;BME280;57138;51.326;-0.068;2022-09-30T10:06:09;99080.53;;;13.18;71.76
69842;BME280;57138;51.326;-0.068;2022-09-30T10:08:57;99080.44;;;13.25;72.40
69842;BME280;57138;51.326;-0.068;2022-09-30T10:11:26;99073.28;;;13.30;71.71
69842;BME280;57138;51.326;-0.068;2022-09-30T10:14:00;99053.22;;;13.21;72.71
69842;BME280;57138;51.326;-0.068;2022-09-30T10:16:33;99064.56;;;13.47;72.01
69842;BME280;57138;51.326;-0.068;2022-09-30T10:19:24;99040.84;;;13.44;71.60
69842;BME280;57138;51.326;-0.068;2022-09-30T10:24:37;99042.47;;;13.57;71.33
69842;BME280;57138;51.326;-0.068;2022-09-30T10:27:04;99028.59;;;13.48;70.00
69842;BME280;57138;51.326;-0.068;2022-09-30T10:29:49;99040.63;;;13.57;71.11
69842;BME280;57138;51.326;-0.068;2022-09-30T10:32:14;99031.47;;;13.58;71.61
69842;BME280;57138;51.326;-0.068;2022-09-30T10:34:42;99049.44;;;13.70;71.11
69842;BME280;57138;51.326;-0.068;2022-09-30T10:37:20;99040.81;;;13.68;70.44
69842;BME280;57138;51.326;-0.068;2022-09-30T10:40:02;99043.25;;;13.69;70.05
69842;BME280;57138;51.326;-0.068;2022-09-30T10:42:34;99043.03;;;13.71;70.44
69842;BME280;57138;51.326;-0.068;2022-09-30T10:45:04;99040.91;;;13.73;70.83
69842;BME280;57138;51.326;-0.068;2022-09-30T10:47:32;99037.06;;;13.69;70.57
69842;BME280;57138;51.326;-0.068;2022-09-30T10:52:34;99033.19;;;13.76;71.00
69842;BME280;57138;51.326;-0.068;2022-09-30T10:55:08;99002.72;;;13.71;71.57
69842;BME280;57138;51.326;-0.068;2022-09-30T10:57:57;99030.66;;;13.98;71.01
69842;BME280;57138;51.326;-0.068;2022-09-30T11:00:29;99026.06;;;14.11;70.76
69842;BME280;57138;51.326;-0.068;2022-09-30T11:03:10;99012.44;;;14.17;70.33
69842;BME280;57138;51.326;-0.068;2022-09-30T11:05:40;98983.63;;;14.13;70.55
69842;BME280;57138;51.326;-0.068;2022-09-30T11:08:30;99004.00;;;14.43;69.25
69842;BME280;57138;51.326;-0.068;2022-09-30T11:11:19;98980.41;;;14.45;69.25
69842;BME280;57138;51.326;-0.068;2022-09-30T11:22:30;98986.38;;;14.64;67.53
69842;BME280;57138;51.326;-0.068;2022-09-30T11:24:58;98968.25;;;14.59;67.86
69842;BME280;57138;51.326;-0.068;2022-09-30T11:39:35;98955.22;;;14.68;64.18
69842;BME280;57138;51.326;-0.068;2022-09-30T11:41:45;98944.97;;;14.65;64.50
69842;BME280;57138;51.326;-0.068;2022-09-30T11:44:27;98951.22;;;14.70;64.00
69842;BME280;57138;51.326;-0.068;2022-09-30T11:47:21;98948.28;;;14.72;63.85
69842;BME280;57138;51.326;-0.068;2022-09-30T11:53:00;98913.56;;;14.70;61.89
69842;BME280;57138;51.326;-0.068;2022-09-30T11:58:27;98906.19;;;14.83;64.49
69842;BME280;57138;51.326;-0.068;2022-09-30T12:01:04;98905.03;;;14.79;65.04
69842;BME280;57138;51.326;-0.068;2022-09-30T12:03:47;98894.78;;;14.76;64.71
69842;BME280;57138;51.326;-0.068;2022-09-30T12:06:37;98900.25;;;14.81;64.28
69842;BME280;57138;51.326;-0.068;2022-09-30T12:09:19;98889.41;;;14.76;64.65
69842;BME280;57138;51.326;-0.068;2022-09-30T12:12:00;98887.28;;;14.78;65.00
69842;BME280;57138;51.326;-0.068;2022-09-30T12:14:40;98869.41;;;14.66;64.65
69842;BME280;57138;51.326;-0.068;2022-09-30T12:17:36;98883.78;;;14.77;64.54
69842;BME280;57138;51.326;-0.068;2022-09-30T12:20:23;98894.75;;;14.92;63.34
69842;BME280;57138;51.326;-0.068;2022-09-30T12:22:59;98889.84;;;14.89;64.02
69842;BME280;57138;51.326;-0.068;2022-09-30T12:25:48;98891.78;;;14.94;63.05
69842;BME280;57138;51.326;-0.068;2022-09-30T12:42:37;98847.88;;;15.38;62.07
69842;BME280;57138;51.326;-0.068;2022-09-30T12:47:52;98833.75;;;15.53;59.23
69842;BME280;57138;51.326;-0.068;2022-09-30T12:50:26;98824.09;;;15.57;60.35
69842;BME280;57138;51.326;-0.068;2022-09-30T12:52:55;98808.97;;;15.51;61.22
69842;BME280;57138;51.326;-0.068;2022-09-30T12:55:31;98810.66;;;15.62;61.11
69842;BME280;57138;51.326;-0.068;2022-09-30T12:58:03;98818.72;;;15.57;57.46
69842;BME280;57138;51.326;-0.068;2022-09-30T13:00:31;98812.72;;;15.50;59.67
69842;BME280;57138;51.326;-0.068;2022-09-30T13:03:05;98798.63;;;15.42;58.61
69842;BME280;57138;51.326;-0.068;2022-09-30T13:10:33;98800.31;;;15.21;59.18
69842;BME280;57138;51.326;-0.068;2022-09-30T13:13:19;98810.47;;;15.14;58.41
69842;BME280;57138;51.326;-0.068;2022-09-30T13:15:49;98797.78;;;15.09;59.34
69842;BME280;57138;51.326;-0.068;2022-09-30T13:23:48;98804.88;;;14.94;59.74
69842;BME280;57138;51.326;-0.068;2022-09-30T13:36:55;98789.28;;;14.73;62.49
69842;BME280;57138;51.326;-0.068;2022-09-30T13:44:58;98780.28;;;14.63;63.31
69842;BME280;57138;51.326;-0.068;2022-09-30T13:52:39;98758.38;;;14.54;64.55
69842;BME280;57138;51.326;-0.068;2022-09-30T13:55:34;98760.50;;;14.52;65.02
69842;BME280;57138;51.326;-0.068;2022-09-30T14:01:01;98767.44;;;14.48;65.63
69842;BME280;57138;51.326;-0.068;2022-09-30T14:22:39;98743.56;;;14.29;65.74
69842;BME280;57138;51.326;-0.068;2022-09-30T14:25:14;98706.22;;;14.11;65.29
69842;BME280;57138;51.326;-0.068;2022-09-30T14:28:08;98712.22;;;14.18;65.88
69842;BME280;57138;51.326;-0.068;2022-09-30T14:30:39;98707.41;;;14.20;65.89
69842;BME280;57138;51.326;-0.068;2022-09-30T14:33:23;98698.19;;;14.16;65.40
69842;BME280;57138;51.326;-0.068;2022-09-30T14:35:52;98729.59;;;14.32;65.28
69842;BME280;57138;51.326;-0.068;2022-09-30T14:38:24;98713.97;;;14.29;65.81
69842;BME280;57138;51.326;-0.068;2022-09-30T14:41:01;98719.34;;;14.29;65.41
69842;BME280;57138;51.326;-0.068;2022-09-30T14:43:41;98718.22;;;14.25;65.87
69842;BME280;57138;51.326;-0.068;2022-09-30T14:46:27;98716.59;;;14.24;65.04
69842;BME280;57138;51.326;-0.068;2022-09-30T14:48:58;98707.91;;;14.17;65.16
69842;BME280;57138;51.326;-0.068;2022-09-30T14:51:27;98712.72;;;14.15;65.49
69842;BME280;57138;51.326;-0.068;2022-09-30T14:53:58;98676.06;;;13.87;65.54
69842;BME280;57138;51.326;-0.068;2022-09-30T14:56:33;98707.34;;;14.15;65.50
69842;BME280;57138;51.326;-0.068;2022-09-30T14:59:05;98701.97;;;14.15;66.11
69842;BME280;57138;51.326;-0.068;2022-09-30T15:01:39;98695.97;;;14.08;66.22
69842;BME280;57138;51.326;-0.068;2022-09-30T15:04:15;98723.13;;;14.11;67.09
69842;BME280;57138;51.326;-0.068;2022-09-30T15:06:46;98681.03;;;13.95;67.52
69842;BME280;57138;51.326;-0.068;2022-09-30T15:09:24;98681.59;;;13.80;68.56
69842;BME280;57138;51.326;-0.068;2022-09-30T15:11:52;98689.31;;;13.93;68.44
69842;BME280;57138;51.326;-0.068;2022-09-30T15:14:19;98676.47;;;13.78;69.51
69842;BME280;57138;51.326;-0.068;2022-09-30T15:16:56;98691.84;;;13.83;69.98
69842;BME280;57138;51.326;-0.068;2022-09-30T15:19:27;98680.72;;;13.74;70.75
69842;BME280;57138;51.326;-0.068;2022-09-30T15:21:55;98676.00;;;13.64;71.62
69842;BME280;57138;51.326;-0.068;2022-09-30T15:24:23;98677.50;;;13.55;72.66
69842;BME280;57138;51.326;-0.068;2022-09-30T15:26:51;98669.78;;;13.42;74.08
69842;BME280;57138;51.326;-0.068;2022-09-30T15:29:18;98656.75;;;13.34;73.40
69842;BME280;57138;51.326;-0.068;2022-09-30T15:31:51;98659.50;;;13.22;75.76
69842;BME280;57138;51.326;-0.068;2022-09-30T15:34:20;98638.44;;;12.97;75.27
69842;BME280;57138;51.326;-0.068;2022-09-30T15:36:54;98633.47;;;12.88;76.20
69842;BME280;57138;51.326;-0.068;2022-09-30T15:39:23;98642.09;;;12.90;77.02
69842;BME280;57138;51.326;-0.068;2022-09-30T15:42:10;98635.50;;;12.81;77.87
69842;BME280;57138;51.326;-0.068;2022-09-30T15:44:38;98628.22;;;12.65;78.31
69842;BME280;57138;51.326;-0.068;2022-09-30T15:47:05;98636.94;;;12.72;78.84
69842;BME280;57138;51.326;-0.068;2022-09-30T15:52:22;98622.47;;;12.56;81.06
69842;BME280;57138;51.326;-0.068;2022-09-30T15:54:52;98581.78;;;12.30;80.41
69842;BME280;57138;51.326;-0.068;2022-09-30T15:57:38;98616.75;;;12.52;82.04
69842;BME280;57138;51.326;-0.068;2022-09-30T16:00:06;98571.69;;;12.20;82.80
69842;BME280;57138;51.326;-0.068;2022-09-30T16:02:33;98589.09;;;12.35;82.50
69842;BME280;57138;51.326;-0.068;2022-09-30T16:05:00;98544.69;;;12.10;82.50
69842;BME280;57138;51.326;-0.068;2022-09-30T16:07:27;98556.97;;;12.23;82.92
69842;BME280;57138;51.326;-0.068;2022-09-30T16:09:56;98583.31;;;12.26;84.30
69842;BME280;57138;51.326;-0.068;2022-09-30T16:12:26;98544.69;;;12.10;83.94
69842;BME280;57138;51.326;-0.068;2022-09-30T16:15:05;98574.53;;;12.31;84.61
69842;BME280;57138;51.326;-0.068;2022-09-30T16:17:34;98549.44;;;12.20;84.72
69842;BME280;57138;51.326;-0.068;2022-09-30T16:25:22;98512.72;;;12.03;85.63
69842;BME280;57138;51.326;-0.068;2022-09-30T16:30:24;98511.44;;;12.06;86.51
69842;BME280;57138;51.326;-0.068;2022-09-30T16:32:52;98532.84;;;12.06;86.23
69842;BME280;57138;51.326;-0.068;2022-09-30T16:35:22;98545.25;;;12.12;86.31